createdAt,value
2023-02-19T00:01:29.976Z,11.45
2023-02-19T00:03:59.579Z,11.41
2023-02-19T00:06:27.939Z,11.32
2023-02-19T00:08:54.726Z,11.29
2023-02-19T00:11:23.266Z,11.31
2023-02-19T00:13:52.715Z,11.26
2023-02-19T00:16:22.569Z,11.15
2023-02-19T00:18:49.683Z,11.16
2023-02-19T00:21:16.837Z,11.18
2023-02-19T00:23:43.592Z,11.15
2023-02-19T00:26:18.535Z,11.11
2023-02-19T00:28:46.830Z,11.06
2023-02-19T00:31:28.077Z,11.05
2023-02-19T00:33:57.407Z,11.06
2023-02-19T00:36:25.466Z,10.99
2023-02-19T00:38:52.325Z,11.01
2023-02-19T00:41:20.769Z,11.03
2023-02-19T00:44:05.652Z,10.99
2023-02-19T00:46:37.649Z,10.93
2023-02-19T00:49:06.576Z,10.90
2023-02-19T00:51:36.877Z,10.87
2023-02-19T00:54:04.465Z,10.88
2023-02-19T00:56:31.530Z,10.89
2023-02-19T00:58:58.176Z,10.97
2023-02-19T01:01:28.212Z,10.99
2023-02-19T01:03:55.260Z,10.97
2023-02-19T01:06:21.961Z,10.94
2023-02-19T01:08:48.996Z,10.91
2023-02-19T01:11:16.818Z,10.91
2023-02-19T01:13:44.005Z,10.89
2023-02-19T01:16:20.007Z,10.93
2023-02-19T01:18:48.030Z,10.88
2023-02-19T01:21:18.443Z,10.82
2023-02-19T01:23:45.329Z,10.77
2023-02-19T01:26:15.136Z,10.81
2023-02-19T01:28:42.699Z,10.83
2023-02-19T01:31:13.668Z,10.84
2023-02-19T01:33:40.411Z,10.78
2023-02-19T01:36:07.782Z,10.75
2023-02-19T01:38:34.347Z,10.73
2023-02-19T01:41:03.874Z,10.73
2023-02-19T01:43:33.687Z,10.71
2023-02-19T01:46:00.888Z,10.69
2023-02-19T01:48:38.352Z,10.65
2023-02-19T01:51:18.428Z,10.63
2023-02-19T01:53:56.596Z,10.62
2023-02-19T01:56:25.902Z,10.62
2023-02-19T01:58:53.688Z,10.58
2023-02-19T02:01:20.308Z,10.53
2023-02-19T02:03:49.541Z,10.51
2023-02-19T02:06:22.330Z,10.57
2023-02-19T02:09:16.265Z,10.53
2023-02-19T02:11:47.639Z,10.53
2023-02-19T02:14:15.226Z,10.55
2023-02-19T02:17:09.903Z,10.57
2023-02-19T02:20:07.787Z,10.52
2023-02-19T02:22:47.311Z,10.53
2023-02-19T02:25:39.899Z,10.50
2023-02-19T02:28:40.600Z,10.45
2023-02-19T02:31:14.880Z,10.45
2023-02-19T02:33:47.965Z,10.41
2023-02-19T02:36:29.132Z,10.41
2023-02-19T02:38:58.366Z,10.39
2023-02-19T02:41:25.724Z,10.39
2023-02-19T02:43:52.307Z,10.33
2023-02-19T02:46:33.032Z,10.35
2023-02-19T02:49:05.574Z,10.34
2023-02-19T02:51:46.535Z,10.37
2023-02-19T02:54:42.569Z,10.32
2023-02-19T02:57:14.926Z,10.35
2023-02-19T02:59:43.027Z,10.40
2023-02-19T03:02:18.927Z,10.44
2023-02-19T03:05:27.122Z,10.41
2023-02-19T03:07:55.986Z,10.43
2023-02-19T03:10:28.910Z,10.40
2023-02-19T03:13:17.580Z,10.42
2023-02-19T03:16:11.309Z,10.42
2023-02-19T03:19:00.718Z,10.38
2023-02-19T03:21:29.012Z,10.40
2023-02-19T03:24:15.909Z,10.39
2023-02-19T03:26:45.666Z,10.36
2023-02-19T03:29:23.099Z,10.35
2023-02-19T03:31:55.088Z,10.30
2023-02-19T03:34:31.960Z,10.30
2023-02-19T03:37:10.962Z,10.34
2023-02-19T03:39:44.368Z,10.33
2023-02-19T03:42:23.113Z,10.37
2023-02-19T03:45:18.804Z,10.38
2023-02-19T03:47:53.334Z,10.42
2023-02-19T03:50:55.149Z,10.45
2023-02-19T03:53:38.257Z,10.53
2023-02-19T03:56:10.834Z,10.53
2023-02-19T03:59:06.811Z,10.55
2023-02-19T04:01:42.481Z,10.51
2023-02-19T04:04:32.020Z,10.51
2023-02-19T04:07:01.117Z,10.46
2023-02-19T04:09:37.546Z,10.44
2023-02-19T04:12:06.466Z,10.36
2023-02-19T04:14:39.502Z,10.34
2023-02-19T04:17:13.693Z,10.28
2023-02-19T04:19:42.762Z,10.32
2023-02-19T04:22:11.366Z,10.24
2023-02-19T04:24:42.959Z,10.24
2023-02-19T04:27:10.264Z,10.23
2023-02-19T04:29:39.086Z,10.19
2023-02-19T04:32:06.392Z,10.21
2023-02-19T04:34:33.358Z,10.18
2023-02-19T04:36:59.926Z,10.21
2023-02-19T04:39:26.482Z,10.15
2023-02-19T04:41:53.040Z,10.17
2023-02-19T04:44:19.703Z,10.16
2023-02-19T04:46:46.299Z,10.15
2023-02-19T04:49:12.880Z,10.09
2023-02-19T04:51:39.862Z,10.06
2023-02-19T04:54:07.011Z,10.03
2023-02-19T04:56:33.637Z,10.05
2023-02-19T04:59:00.174Z,10.04
2023-02-19T05:01:26.895Z,10.04
2023-02-19T05:03:53.509Z,9.98
2023-02-19T05:06:20.228Z,9.98
2023-02-19T05:08:46.893Z,10.01
2023-02-19T05:11:13.682Z,10.00
2023-02-19T05:13:40.918Z,10.04
2023-02-19T05:16:13.987Z,10.00
2023-02-19T05:18:41.506Z,10.00
2023-02-19T05:21:09.002Z,10.03
2023-02-19T05:23:35.726Z,9.99
2023-02-19T05:26:13.553Z,9.98
2023-02-19T05:28:40.152Z,10.01
2023-02-19T05:31:08.901Z,9.99
2023-02-19T05:33:37.536Z,9.98
2023-02-19T05:36:07.538Z,9.98
2023-02-19T05:38:34.631Z,9.92
2023-02-19T05:41:15.699Z,9.90
2023-02-19T05:43:44.111Z,9.91
2023-02-19T05:46:12.898Z,9.93
2023-02-19T05:48:39.758Z,9.91
2023-02-19T05:51:09.077Z,9.97
2023-02-19T05:53:36.505Z,9.95
2023-02-19T05:56:03.395Z,9.97
2023-02-19T05:58:30.428Z,10.00
2023-02-19T06:00:57.220Z,9.91
2023-02-19T06:03:23.961Z,9.90
2023-02-19T06:05:50.602Z,9.92
2023-02-19T06:08:17.150Z,9.91
2023-02-19T06:10:43.804Z,9.90
2023-02-19T06:13:11.067Z,9.92
2023-02-19T06:15:38.253Z,9.89
2023-02-19T06:18:04.985Z,9.86
2023-02-19T06:20:31.565Z,9.90
2023-02-19T06:22:58.225Z,9.96
2023-02-19T06:25:24.753Z,9.93
2023-02-19T06:27:51.285Z,9.95
2023-02-19T06:30:18.138Z,9.92
2023-02-19T06:32:44.705Z,9.93
2023-02-19T06:35:11.274Z,9.99
2023-02-19T06:37:37.924Z,10.06
2023-02-19T06:40:04.793Z,10.09
2023-02-19T06:42:33.311Z,10.04
2023-02-19T06:44:59.862Z,10.08
2023-02-19T06:47:26.402Z,10.09
2023-02-19T06:49:53.054Z,10.14
2023-02-19T06:52:19.637Z,10.10
2023-02-19T06:54:46.730Z,10.03
2023-02-19T06:57:13.290Z,10.05
2023-02-19T06:59:39.922Z,10.09
2023-02-19T07:02:06.559Z,10.08
2023-02-19T07:04:33.260Z,10.12
2023-02-19T07:07:00.365Z,10.11
2023-02-19T07:09:28.611Z,10.07
2023-02-19T07:11:55.314Z,10.07
2023-02-19T07:14:22.267Z,10.10
2023-02-19T07:16:49.345Z,10.08
2023-02-19T07:19:15.988Z,10.11
2023-02-19T07:21:42.736Z,10.17
2023-02-19T07:24:10.328Z,10.15
2023-02-19T07:26:37.025Z,10.16
2023-02-19T07:29:04.349Z,10.21
2023-02-19T07:31:31.049Z,10.28
2023-02-19T07:33:57.723Z,10.36
2023-02-19T07:36:24.966Z,10.35
2023-02-19T07:38:55.691Z,10.35
2023-02-19T07:41:22.795Z,10.30
2023-02-19T07:43:49.426Z,10.29
2023-02-19T07:46:16.030Z,10.26
2023-02-19T07:48:43.388Z,10.29
2023-02-19T07:51:13.734Z,10.33
2023-02-19T07:53:40.484Z,10.30
2023-02-19T07:56:08.679Z,10.40
2023-02-19T07:58:36.135Z,10.36
2023-02-19T08:01:09.021Z,10.39
2023-02-19T08:03:37.043Z,10.38
2023-02-19T08:06:04.794Z,10.46
2023-02-19T08:08:31.374Z,10.40
2023-02-19T08:11:20.913Z,10.43
2023-02-19T08:13:52.466Z,10.48
2023-02-19T08:16:29.680Z,10.55
2023-02-19T08:19:03.808Z,10.59
2023-02-19T08:21:31.000Z,10.61
2023-02-19T08:23:58.282Z,10.64
2023-02-19T08:26:24.865Z,10.70
2023-02-19T08:28:51.429Z,10.73
2023-02-19T08:31:18.059Z,10.81
2023-02-19T08:33:44.643Z,10.81
2023-02-19T08:36:11.678Z,10.84
2023-02-19T08:38:38.724Z,10.73
2023-02-19T08:41:11.406Z,10.64
2023-02-19T08:43:39.466Z,10.71
2023-02-19T08:46:16.028Z,10.63
2023-02-19T08:48:42.638Z,10.73
2023-02-19T08:51:12.045Z,10.74
2023-02-19T08:53:39.825Z,10.74
2023-02-19T08:56:12.858Z,10.71
2023-02-19T08:58:39.740Z,10.66
2023-02-19T09:01:14.995Z,10.66
2023-02-19T09:03:42.098Z,10.71
2023-02-19T09:06:13.524Z,10.82
2023-02-19T09:08:40.079Z,10.81
2023-02-19T09:11:07.471Z,10.89
2023-02-19T09:13:34.189Z,10.90
2023-02-19T09:16:05.200Z,10.92
2023-02-19T09:18:32.470Z,10.90
2023-02-19T09:21:04.783Z,10.97
2023-02-19T09:23:35.961Z,11.04
2023-02-19T09:26:06.894Z,10.98
2023-02-19T09:28:34.019Z,10.99
2023-02-19T09:31:12.139Z,10.98
2023-02-19T09:33:42.831Z,10.97
2023-02-19T09:36:09.549Z,11.00
2023-02-19T09:38:36.115Z,10.97
2023-02-19T09:41:38.147Z,10.98
2023-02-19T09:44:09.281Z,11.04
2023-02-19T09:46:41.169Z,11.01
2023-02-19T09:49:36.220Z,11.09
2023-02-19T09:52:19.957Z,10.96
2023-02-19T09:54:47.906Z,11.11
2023-02-19T09:57:23.417Z,11.22
2023-02-19T10:00:05.359Z,11.30
2023-02-19T10:02:32.420Z,11.33
2023-02-19T10:04:59.851Z,11.36
2023-02-19T10:07:38.282Z,11.38
2023-02-19T10:10:13.618Z,11.38
2023-02-19T10:12:54.091Z,11.43
2023-02-19T10:15:28.232Z,11.49
2023-02-19T10:17:55.031Z,11.49
2023-02-19T10:20:26.659Z,11.50
2023-02-19T10:23:06.790Z,11.53
2023-02-19T10:25:35.357Z,11.49
2023-02-19T10:28:04.143Z,11.56
2023-02-19T10:30:34.895Z,11.56
2023-02-19T10:33:16.639Z,11.57
2023-02-19T10:36:06.704Z,11.61
2023-02-19T10:38:39.647Z,11.61
2023-02-19T10:41:22.823Z,11.59
2023-02-19T10:44:15.420Z,11.64
2023-02-19T10:46:45.691Z,11.67
2023-02-19T10:49:28.053Z,11.69
2023-02-19T10:51:57.083Z,11.70
2023-02-19T10:54:31.550Z,11.77
2023-02-19T10:57:30.524Z,11.79
2023-02-19T11:00:22.942Z,11.79
2023-02-19T11:03:14.115Z,11.84
2023-02-19T11:05:51.711Z,11.84
2023-02-19T11:08:23.170Z,11.90
2023-02-19T11:10:50.215Z,11.98
2023-02-19T11:13:30.986Z,12.07
2023-02-19T11:15:59.023Z,12.08
2023-02-19T11:18:28.186Z,12.14
2023-02-19T11:21:00.677Z,12.21
2023-02-19T11:23:31.179Z,12.27
2023-02-19T11:26:01.616Z,12.26
2023-02-19T11:28:34.148Z,12.23
2023-02-19T11:31:27.593Z,12.22
2023-02-19T11:34:01.112Z,12.24
2023-02-19T11:36:32.097Z,12.19
2023-02-19T11:39:00.313Z,12.18
2023-02-19T11:41:37.256Z,12.15
2023-02-19T11:44:15.929Z,12.17
2023-02-19T11:47:01.546Z,12.22
2023-02-19T11:49:40.027Z,12.23
2023-02-19T11:52:18.947Z,12.22
2023-02-19T11:55:01.226Z,12.24
2023-02-19T11:57:30.703Z,12.26
2023-02-19T12:00:16.054Z,12.27
2023-02-19T12:02:49.531Z,12.24
2023-02-19T12:05:37.968Z,12.23
2023-02-19T12:08:35.981Z,12.29
2023-02-19T12:11:19.398Z,12.29
2023-02-19T12:14:26.231Z,12.30
2023-02-19T12:17:07.416Z,12.24
2023-02-19T12:19:47.588Z,12.17
2023-02-19T12:22:20.065Z,12.18
2023-02-19T12:24:52.871Z,12.15
2023-02-19T12:27:40.966Z,12.18
2023-02-19T12:30:25.255Z,12.18
2023-02-19T12:33:18.578Z,12.03
2023-02-19T12:35:55.064Z,11.81
2023-02-19T12:38:35.219Z,11.61
2023-02-19T12:41:19.889Z,11.45
2023-02-19T12:44:04.268Z,11.14
2023-02-19T12:46:43.103Z,11.16
2023-02-19T12:49:21.808Z,11.04
2023-02-19T12:51:57.710Z,10.98
2023-02-19T12:54:38.926Z,10.88
2023-02-19T12:57:10.022Z,10.93
2023-02-19T12:59:46.367Z,10.82
2023-02-19T13:02:19.750Z,10.87
2023-02-19T13:04:56.098Z,10.88
2023-02-19T13:07:38.152Z,10.78
2023-02-19T13:10:32.216Z,10.71
2023-02-19T13:13:04.087Z,10.66
2023-02-19T13:15:35.863Z,10.64
2023-02-19T13:18:05.256Z,10.55
2023-02-19T13:20:36.173Z,10.59
2023-02-19T13:23:27.618Z,10.71
2023-02-19T13:26:20.818Z,10.69
2023-02-19T13:28:59.510Z,10.76
2023-02-19T13:31:41.963Z,10.77
2023-02-19T13:34:39.811Z,10.79
2023-02-19T13:37:07.476Z,10.75
2023-02-19T13:39:34.626Z,10.78
2023-02-19T13:42:02.216Z,10.73
2023-02-19T13:44:41.686Z,10.72
2023-02-19T13:47:46.942Z,10.73
2023-02-19T13:50:29.056Z,10.73
2023-02-19T13:52:57.260Z,10.71
2023-02-19T13:55:52.627Z,10.68
2023-02-19T13:58:34.562Z,10.70
2023-02-19T14:01:11.869Z,10.66
2023-02-19T14:03:48.085Z,10.77
2023-02-19T14:06:14.833Z,10.79
2023-02-19T14:08:58.545Z,10.90
2023-02-19T14:11:45.002Z,10.87
2023-02-19T14:14:36.228Z,10.83
2023-02-19T14:17:08.954Z,10.86
2023-02-19T14:19:42.023Z,10.94
2023-02-19T14:22:51.526Z,10.87
2023-02-19T14:25:27.284Z,10.85
2023-02-19T14:28:21.710Z,10.88
2023-02-19T14:31:09.061Z,10.80
2023-02-19T14:33:40.266Z,10.76
2023-02-19T14:36:16.641Z,10.76
2023-02-19T14:38:51.924Z,10.78
2023-02-19T14:41:19.730Z,10.77
2023-02-19T14:43:50.752Z,10.73
2023-02-19T14:46:32.891Z,10.75
2023-02-19T14:49:07.912Z,10.70
2023-02-19T14:51:41.806Z,10.60
2023-02-19T14:54:40.721Z,10.48
2023-02-19T14:57:17.489Z,10.51
2023-02-19T14:59:55.205Z,10.51
2023-02-19T15:02:22.116Z,10.52
2023-02-19T15:04:48.731Z,10.47
2023-02-19T15:07:20.267Z,10.51
2023-02-19T15:09:53.408Z,10.48
2023-02-19T15:12:46.323Z,10.44
2023-02-19T15:15:21.040Z,10.49
2023-02-19T15:17:48.423Z,10.48
2023-02-19T15:20:19.635Z,10.51
2023-02-19T15:22:46.671Z,10.49
2023-02-19T15:25:19.985Z,10.43
2023-02-19T15:27:47.409Z,10.55
2023-02-19T15:30:28.515Z,10.52
2023-02-19T15:33:00.053Z,10.43
2023-02-19T15:35:28.778Z,10.43
2023-02-19T15:37:55.813Z,10.43
2023-02-19T15:40:30.077Z,10.39
2023-02-19T15:42:58.657Z,10.42
2023-02-19T15:45:30.821Z,10.42
2023-02-19T15:48:08.261Z,10.39
2023-02-19T15:50:39.364Z,10.24
2023-02-19T15:53:09.385Z,10.26
2023-02-19T15:55:43.331Z,10.19
2023-02-19T15:58:28.288Z,10.13
2023-02-19T16:00:59.627Z,10.04
2023-02-19T16:03:28.028Z,10.02
2023-02-19T16:06:15.964Z,9.96
2023-02-19T16:08:45.532Z,9.96
2023-02-19T16:11:24.210Z,9.89
2023-02-19T16:13:51.976Z,9.78
2023-02-19T16:16:34.964Z,9.69
2023-02-19T16:19:01.872Z,9.63
2023-02-19T16:21:32.485Z,9.39
2023-02-19T16:24:13.444Z,9.35
2023-02-19T16:26:43.156Z,9.26
2023-02-19T16:29:36.276Z,9.04
2023-02-19T16:32:08.013Z,8.94
2023-02-19T16:34:43.084Z,8.82
2023-02-19T16:37:35.159Z,8.62
2023-02-19T16:40:12.929Z,8.48
2023-02-19T16:42:53.123Z,8.37
2023-02-19T16:45:19.811Z,8.12
2023-02-19T16:47:51.194Z,8.07
2023-02-19T16:50:22.215Z,8.03
2023-02-19T16:52:55.784Z,7.86
2023-02-19T16:55:22.595Z,7.85
2023-02-19T16:57:51.788Z,7.78
2023-02-19T17:00:27.301Z,7.67
2023-02-19T17:02:57.119Z,7.73
2023-02-19T17:05:27.474Z,7.69
2023-02-19T17:07:54.114Z,7.60
2023-02-19T17:10:24.629Z,7.49
2023-02-19T17:12:54.875Z,7.57
2023-02-19T17:15:22.314Z,7.45
2023-02-19T17:17:48.952Z,7.39
2023-02-19T17:20:27.671Z,7.41
2023-02-19T17:22:57.602Z,7.39
2023-02-19T17:25:24.183Z,7.46
2023-02-19T17:27:52.716Z,7.40
2023-02-19T17:30:32.723Z,7.39
2023-02-19T17:32:59.673Z,7.40
2023-02-19T17:35:26.261Z,7.40
2023-02-19T17:37:53.531Z,7.42
2023-02-19T17:40:32.630Z,7.30
2023-02-19T17:43:00.052Z,7.31
2023-02-19T17:45:26.572Z,7.32
2023-02-19T17:47:53.387Z,7.23
2023-02-19T17:50:23.214Z,7.31
2023-02-19T17:52:49.818Z,7.22
2023-02-19T17:55:18.466Z,7.13
2023-02-19T17:57:46.008Z,7.11
2023-02-19T18:00:22.180Z,7.01
2023-02-19T18:02:51.750Z,7.00
2023-02-19T18:05:20.657Z,6.87
2023-02-19T18:07:48.285Z,6.89
2023-02-19T18:10:20.408Z,6.83
2023-02-19T18:12:47.919Z,6.69
2023-02-19T18:15:21.103Z,6.70
2023-02-19T18:17:47.905Z,6.57
2023-02-19T18:20:17.285Z,6.49
2023-02-19T18:22:43.885Z,6.47
2023-02-19T18:25:11.667Z,6.44
2023-02-19T18:27:40.898Z,6.44
2023-02-19T18:30:08.278Z,6.36
2023-02-19T18:32:35.502Z,6.31
2023-02-19T18:35:05.247Z,6.34
2023-02-19T18:37:32.980Z,6.28
2023-02-19T18:40:00.555Z,6.22
2023-02-19T18:42:27.787Z,6.22
2023-02-19T18:44:55.032Z,6.17
2023-02-19T18:47:22.705Z,6.15
2023-02-19T18:49:50.476Z,6.10
2023-02-19T18:52:20.378Z,6.03
2023-02-19T18:54:48.299Z,6.00
2023-02-19T18:57:15.593Z,5.95
2023-02-19T18:59:43.182Z,5.89
2023-02-19T19:02:10.225Z,5.87
2023-02-19T19:04:38.580Z,5.82
2023-02-19T19:07:06.526Z,5.74
2023-02-19T19:09:34.010Z,5.71
2023-02-19T19:12:01.032Z,5.64
2023-02-19T19:14:27.760Z,5.65
2023-02-19T19:16:54.617Z,5.58
2023-02-19T19:19:21.664Z,5.55
2023-02-19T19:21:53.610Z,5.42
2023-02-19T19:24:21.339Z,5.42
2023-02-19T19:26:48.796Z,5.39
2023-02-19T19:29:17.253Z,5.35
2023-02-19T19:31:44.812Z,5.30
2023-02-19T19:34:12.560Z,5.27
2023-02-19T19:36:39.086Z,5.25
2023-02-19T19:39:06.016Z,5.25
2023-02-19T19:41:32.594Z,5.22
2023-02-19T19:44:02.945Z,5.23
2023-02-19T19:46:29.650Z,5.24
2023-02-19T19:48:56.236Z,5.26
2023-02-19T19:51:22.801Z,5.24
2023-02-19T19:53:49.832Z,5.27
2023-02-19T19:56:17.613Z,5.30
2023-02-19T19:58:44.304Z,5.30
2023-02-19T20:01:11.097Z,5.30
2023-02-19T20:03:38.008Z,5.30
2023-02-19T20:06:07.688Z,5.33
2023-02-19T20:08:34.297Z,5.38
2023-02-19T20:11:00.904Z,5.32
2023-02-19T20:13:30.524Z,5.31
2023-02-19T20:15:57.125Z,5.30
2023-02-19T20:18:30.546Z,5.29
2023-02-19T20:20:57.166Z,5.38
2023-02-19T20:23:23.669Z,5.40
2023-02-19T20:25:50.271Z,5.39
2023-02-19T20:28:16.852Z,5.39
2023-02-19T20:30:43.903Z,5.41
2023-02-19T20:33:10.645Z,5.39
2023-02-19T20:35:37.310Z,5.42
2023-02-19T20:38:03.916Z,5.46
2023-02-19T20:40:32.243Z,5.49
2023-02-19T20:43:00.904Z,5.51
2023-02-19T20:45:28.275Z,5.59
2023-02-19T20:47:54.834Z,5.54
2023-02-19T20:50:23.325Z,5.52
2023-02-19T20:52:50.090Z,5.57
2023-02-19T20:55:16.786Z,5.58
2023-02-19T20:57:43.450Z,5.60
2023-02-19T21:00:11.226Z,5.63
2023-02-19T21:02:39.868Z,5.58
2023-02-19T21:05:06.690Z,5.57
2023-02-19T21:07:33.341Z,5.68
2023-02-19T21:09:59.944Z,5.69
2023-02-19T21:12:26.645Z,5.78
2023-02-19T21:14:53.265Z,5.75
2023-02-19T21:17:20.093Z,5.75
2023-02-19T21:19:49.889Z,5.72
2023-02-19T21:22:16.939Z,5.68
2023-02-19T21:24:43.690Z,5.68
2023-02-19T21:27:10.398Z,5.68
2023-02-19T21:29:36.901Z,5.69
2023-02-19T21:32:03.541Z,5.67
2023-02-19T21:34:30.494Z,5.66
2023-02-19T21:36:57.502Z,5.65
2023-02-19T21:39:25.688Z,5.63
2023-02-19T21:41:52.531Z,5.64
2023-02-19T21:44:21.041Z,5.66
2023-02-19T21:46:48.445Z,5.65
2023-02-19T21:49:15.114Z,5.64
2023-02-19T21:51:43.627Z,5.65
2023-02-19T21:54:15.959Z,5.59
2023-02-19T21:56:42.827Z,5.63
2023-02-19T21:59:09.801Z,5.64
2023-02-19T22:01:42.293Z,5.61
2023-02-19T22:04:12.845Z,5.53
2023-02-19T22:06:40.495Z,5.50
2023-02-19T22:09:08.240Z,5.53
2023-02-19T22:11:35.137Z,5.54
2023-02-19T22:14:02.128Z,5.50
2023-02-19T22:16:29.305Z,5.47
2023-02-19T22:18:57.841Z,5.46
2023-02-19T22:21:27.715Z,5.43
2023-02-19T22:23:55.472Z,5.42
2023-02-19T22:26:33.473Z,5.39
2023-02-19T22:29:04.148Z,5.34
2023-02-19T22:31:32.362Z,5.32
2023-02-19T22:33:59.030Z,5.32
2023-02-19T22:36:28.690Z,5.27
2023-02-19T22:38:55.258Z,5.26
2023-02-19T22:41:22.705Z,5.25
2023-02-19T22:43:49.712Z,5.20
2023-02-19T22:46:22.248Z,5.17
2023-02-19T22:48:49.093Z,5.14
2023-02-19T22:51:18.898Z,5.07
2023-02-19T22:53:53.036Z,5.07
2023-02-19T22:56:21.312Z,5.04
2023-02-19T22:58:48.342Z,5.01
2023-02-19T23:01:15.486Z,4.97
2023-02-19T23:03:50.809Z,4.94
2023-02-19T23:06:22.231Z,4.88
2023-02-19T23:08:48.745Z,4.88
2023-02-19T23:11:22.137Z,4.88
2023-02-19T23:13:48.719Z,4.83
2023-02-19T23:16:15.791Z,4.79
2023-02-19T23:18:42.576Z,4.77
2023-02-19T23:21:10.056Z,4.75
2023-02-19T23:23:36.667Z,4.69
2023-02-19T23:26:04.754Z,4.68
2023-02-19T23:28:31.278Z,4.66
2023-02-19T23:30:58.040Z,4.61
2023-02-19T23:33:24.649Z,4.60
2023-02-19T23:35:51.307Z,4.60
2023-02-19T23:38:18.201Z,4.60
2023-02-19T23:40:45.411Z,4.58
2023-02-19T23:43:12.004Z,4.57
2023-02-19T23:45:38.561Z,4.54
2023-02-19T23:48:05.147Z,4.54
2023-02-19T23:50:31.697Z,4.53
2023-02-19T23:52:59.336Z,4.48
2023-02-19T23:55:27.129Z,4.48
2023-02-19T23:57:53.813Z,4.47
